Flat Rock, Michigan
Current Conditions -  °F | °C
As of 3:54 PM on Thursday 20 Nov 2014 (Local Time) from KONZ Reporting Station
Broken Clouds Broken Clouds  
Wind Chill: 13°   Ceiling: 4300
Heat Index: 27°   Visibility: 10mi
Dew Point: 12°   Wind: 20mph
Humidity: 55%   Direction: 250°WSW
Pressure: 29.96"   Gusts: 26mph
Location:  42.09°N, 83.28°W
Report Text: KONZ 202054Z AUTO 25017G23KT 10SM SCT037 BKN043 BKN049 M03/M11 A2996 RMK AO2
Loading
Personal Weather Stations






























Interactive Weather Map New forecast layout! Learn more

10-Day Weather Forecast

Advertisements
Track Severe Weather on mobile